女満別空港の過去48時間の天気

女満別空港 (Memanbetsu)

現在時刻: 2/22 15:27 JST (2/22 06:27 UTC) 以下の時間は現地時間です。

過去48時間のMETAR気象情報
時間 風向 風速(m/s) 視程 気温(℃) 湿度(%) 気圧(hPa) 天気現象
22 15:00 南南東 8 10km以上 3 56 1016
22 14:00 南南東 9 10km以上 3 56 1018
22 12:00 9 10km以上 1 64 1021
22 11:00 7 10km以上 1 64 1023
22 10:00 6 10km以上 -1 74 1024
22 09:00 南南西 4 10km以上 -3 74 1025
22 08:00 2 10km以上 -8 79 1027
21 20:00 静穏 0 5000m -6 86 1032 弱いしゅう雪
21 19:00 不定 1 5000m -5 79 1032 弱いしゅう雪
21 18:00 北北東 2 3200m -5 86 1032 弱いしゅう雪
21 17:20 北北東 2 3200m -5 86 1031 弱いしゅう雪
21 17:09 3 3100m -5 86 1031 弱いしゅう雪
21 17:00 3 5000m -5 86 1031 弱いしゅう雪
21 16:17 2 5000m -4 80 1030 弱いしゅう雪
21 16:00 4 4900m -4 80 1030 弱いしゅう雪
21 15:29 4 4900m -4 80 1030 弱いしゅう雪
21 15:18 5 3200m -4 80 1030 弱いしゅう雪
21 15:00 4 3100m -4 80 1030 弱いしゅう雪
21 14:36 5 3100m -4 86 1029 弱いしゅう雪
21 14:19 5 4900m -4 86 1029 弱いしゅう雪
21 14:00 4 5000m -4 86 1029 弱いしゅう雪
21 13:33 5 3100m -4 80 1028 弱いしゅう雪
21 13:13 北北東 3 4900m -3 74 1028 弱いしゅう雪
21 13:00 東北東 2 10km以上 -2 69 1028 弱いしゅう雪
21 12:00 2 6000m -3 68 1028 弱いしゅう雪
21 11:00 南東 3 6000m -3 68 1029 弱いしゅう雪
21 10:00 東南東 2 10km以上 -4 74 1029 弱いしゅう雪
21 09:00 2 7000m -5 79 1029 弱いしゅう雪
21 08:00 南南東 1 10km以上 -8 86 1029 弱いしゅう雪
RJCM 220600Z 15016KT 9999 FEW020 SCT120 BKN140 03/M05 Q1016
RJCM 220500Z 16017KT 9999 FEW020 SCT140 BKN/// 03/M05 Q1018
RJCM 220300Z 18018KT 9999 FEW020 BKN130 BKN/// 01/M05 Q1021
RJCM 220200Z 18014KT 9999 FEW020 BKN/// 01/M05 Q1023
RJCM 220100Z 18012KT 170V230 9999 FEW020 BKN100 M01/M05 Q1024
RJCM 220000Z 20007KT 9999 FEW020 BKN100 M03/M07 Q1025
RJCM 212300Z 17003KT 9999 FEW020 SCT100 BKN120 M08/M11 Q1027
RJCM 211100Z 00000KT 5000 -SHSN FEW006 SCT030 BKN050 M06/M08 Q1032
RJCM 211000Z VRB02KT 5000 -SHSN FEW006 SCT020 BKN070 M05/M08 Q1032
RJCM 210900Z 02003KT 3200 -SHSN FEW006 SCT010 BKN015 M05/M07 Q1032
RJCM 210820Z 02004KT 3200 -SHSN FEW006 SCT010 BKN015 M05/M07 Q1031 RMK 1ST006 3ST010 6ST015 A3047
RJCM 210809Z 01006KT 320V030 3100 -SHSN FEW006 SCT010 BKN015 M05/M07 Q1031 RMK 1ST006 3ST010 6ST015 A3046
RJCM 210800Z 01006KT 5000 -SHSN FEW008 SCT015 BKN030 M05/M07 Q1031
RJCM 210717Z 01004KT 5000 -SHSN FEW008 SCT015 BKN020 M04/M07 Q1030 RMK 1ST008 3ST015 5CU020 A3044
RJCM 210700Z 36008KT 4900 -SHSN FEW006 SCT010 BKN015 M04/M07 Q1030
RJCM 210629Z 36008KT 4900 -SHSN FEW006 SCT009 BKN010 M04/M07 Q1030 RMK 1ST006 3ST009 5ST010 A3042
RJCM 210618Z 36009KT 3200 -SHSN FEW006 SCT009 BKN010 M04/M07 Q1030 RMK 1ST006 3ST009 5ST010 A3042
RJCM 210600Z 01008KT 3100 -SHSN FEW006 SCT009 BKN010 M04/M07 Q1030
RJCM 210536Z 36010KT 3100 R36/P1800N -SHSN FEW006 SCT010 BKN015 M04/M06 Q1029 RMK 1ST006 3ST010 6ST015 A3040
RJCM 210519Z 36009KT 4900 -SHSN FEW006 SCT010 BKN015 M04/M06 Q1029 RMK 1ST006 3ST010 5ST015 A3039
RJCM 210500Z 36007KT 5000 -SHSN FEW006 SCT010 BKN030 M04/M06 Q1029
RJCM 210433Z 01010KT 3100 -SHSN FEW007 SCT010 BKN015 M04/M07 Q1028 RMK 1ST007 3ST010 6ST015 A3038
RJCM 210413Z 03005KT 4900 -SHSN FEW010 SCT015 BKN020 M03/M07 Q1028 RMK 1ST010 3ST015 6CU020 A3037 9999S-SW
RJCM 210400Z 07003KT 030V130 9999 -SHSN FEW010 SCT020 BKN030 M02/M07 Q1028
RJCM 210300Z 10003KT 060V130 6000 -SHSN FEW010 SCT020 BKN030 M03/M08 Q1028
RJCM 210200Z 14005KT 6000 -SHSN FEW010 SCT020 BKN030 M03/M08 Q1029
RJCM 210100Z 11003KT 9999 -SHSN FEW010 SCT030 BKN040 M04/M08 Q1029
RJCM 210000Z 17004KT 7000 -SHSN FEW010 SCT020 BKN030 M05/M08 Q1029
RJCM 202300Z 16002KT 9999 -SHSN FEW010 SCT030 BKN040 M08/M10 Q1029